sensor_id;sensor_type;location;lat;lon;timestamp;temperature;humidity
57636;DHT22;43465;50.728;4.160;2023-03-05T00:01:36;7.50;99.90
57636;DHT22;43465;50.728;4.160;2023-03-05T00:04:04;7.30;99.90
57636;DHT22;43465;50.728;4.160;2023-03-05T00:06:31;7.40;99.90
57636;DHT22;43465;50.728;4.160;2023-03-05T00:08:57;7.50;99.90
57636;DHT22;43465;50.728;4.160;2023-03-05T00:11:24;7.70;99.90
57636;DHT22;43465;50.728;4.160;2023-03-05T00:13:52;7.70;99.90
57636;DHT22;43465;50.728;4.160;2023-03-05T00:16:19;7.60;99.90
57636;DHT22;43465;50.728;4.160;2023-03-05T00:18:45;7.60;99.90
57636;DHT22;43465;50.728;4.160;2023-03-05T00:21:22;7.60;99.90
57636;DHT22;43465;50.728;4.160;2023-03-05T00:23:49;7.60;99.90
57636;DHT22;43465;50.728;4.160;2023-03-05T00:26:17;7.50;99.90
57636;DHT22;43465;50.728;4.160;2023-03-05T00:28:42;7.50;99.90
57636;DHT22;43465;50.728;4.160;2023-03-05T00:31:08;7.50;99.90
57636;DHT22;43465;50.728;4.160;2023-03-05T00:33:34;7.50;99.90
57636;DHT22;43465;50.728;4.160;2023-03-05T00:36:04;7.50;99.90
57636;DHT22;43465;50.728;4.160;2023-03-05T00:38:30;7.50;99.90
57636;DHT22;43465;50.728;4.160;2023-03-05T00:40:56;7.40;99.90
57636;DHT22;43465;50.728;4.160;2023-03-05T00:43:22;7.40;99.90
57636;DHT22;43465;50.728;4.160;2023-03-05T00:45:47;7.40;99.90
57636;DHT22;43465;50.728;4.160;2023-03-05T00:48:13;7.40;99.90
57636;DHT22;43465;50.728;4.160;2023-03-05T00:50:38;7.30;99.90
57636;DHT22;43465;50.728;4.160;2023-03-05T00:53:04;7.30;99.90
57636;DHT22;43465;50.728;4.160;2023-03-05T00:55:30;7.30;99.90
57636;DHT22;43465;50.728;4.160;2023-03-05T00:57:55;7.40;99.90
57636;DHT22;43465;50.728;4.160;2023-03-05T01:00:21;7.40;99.90
57636;DHT22;43465;50.728;4.160;2023-03-05T01:02:46;7.40;99.90
57636;DHT22;43465;50.728;4.160;2023-03-05T01:05:13;7.40;99.90
57636;DHT22;43465;50.728;4.160;2023-03-05T01:07:39;7.40;99.90
57636;DHT22;43465;50.728;4.160;2023-03-05T01:10:06;7.40;99.90
57636;DHT22;43465;50.728;4.160;2023-03-05T01:12:32;7.50;99.90
57636;DHT22;43465;50.728;4.160;2023-03-05T01:14:58;7.40;99.90
57636;DHT22;43465;50.728;4.160;2023-03-05T01:17:23;7.40;99.90
57636;DHT22;43465;50.728;4.160;2023-03-05T01:19:49;7.40;99.90
57636;DHT22;43465;50.728;4.160;2023-03-05T01:22:15;7.50;99.90
57636;DHT22;43465;50.728;4.160;2023-03-05T01:24:40;7.40;99.90
57636;DHT22;43465;50.728;4.160;2023-03-05T01:27:06;7.50;99.90
57636;DHT22;43465;50.728;4.160;2023-03-05T01:29:31;7.50;99.90
57636;DHT22;43465;50.728;4.160;2023-03-05T01:31:57;7.50;99.90
57636;DHT22;43465;50.728;4.160;2023-03-05T01:34:23;7.60;99.90
57636;DHT22;43465;50.728;4.160;2023-03-05T01:36:48;7.50;99.90
57636;DHT22;43465;50.728;4.160;2023-03-05T01:39:17;7.40;99.90
57636;DHT22;43465;50.728;4.160;2023-03-05T01:41:42;7.40;99.90
57636;DHT22;43465;50.728;4.160;2023-03-05T01:44:24;7.40;99.90
57636;DHT22;43465;50.728;4.160;2023-03-05T01:46:50;7.30;99.90
57636;DHT22;43465;50.728;4.160;2023-03-05T01:49:31;7.20;99.90
57636;DHT22;43465;50.728;4.160;2023-03-05T01:52:08;7.30;99.90
57636;DHT22;43465;50.728;4.160;2023-03-05T01:54:39;7.40;99.90
57636;DHT22;43465;50.728;4.160;2023-03-05T01:57:11;7.30;99.90
57636;DHT22;43465;50.728;4.160;2023-03-05T01:59:39;7.40;99.90
57636;DHT22;43465;50.728;4.160;2023-03-05T02:02:06;7.40;99.90
57636;DHT22;43465;50.728;4.160;2023-03-05T02:04:54;7.30;99.90
57636;DHT22;43465;50.728;4.160;2023-03-05T02:07:22;7.30;99.90
57636;DHT22;43465;50.728;4.160;2023-03-05T02:09:48;7.40;99.90
57636;DHT22;43465;50.728;4.160;2023-03-05T02:12:14;7.40;99.90
57636;DHT22;43465;50.728;4.160;2023-03-05T02:14:42;7.50;99.90
57636;DHT22;43465;50.728;4.160;2023-03-05T02:17:10;7.50;99.90
57636;DHT22;43465;50.728;4.160;2023-03-05T02:19:52;7.40;99.90
57636;DHT22;43465;50.728;4.160;2023-03-05T02:22:20;7.40;99.90
57636;DHT22;43465;50.728;4.160;2023-03-05T02:24:46;7.40;99.90
57636;DHT22;43465;50.728;4.160;2023-03-05T02:27:12;7.40;99.90
57636;DHT22;43465;50.728;4.160;2023-03-05T02:29:42;7.30;99.90
57636;DHT22;43465;50.728;4.160;2023-03-05T02:32:08;7.30;99.90
57636;DHT22;43465;50.728;4.160;2023-03-05T02:34:35;7.20;99.90
57636;DHT22;43465;50.728;4.160;2023-03-05T02:37:01;7.10;99.90
57636;DHT22;43465;50.728;4.160;2023-03-05T02:39:29;7.10;99.90
57636;DHT22;43465;50.728;4.160;2023-03-05T02:41:55;7.00;99.90
57636;DHT22;43465;50.728;4.160;2023-03-05T02:44:22;7.10;99.90
57636;DHT22;43465;50.728;4.160;2023-03-05T02:46:47;7.10;99.90
57636;DHT22;43465;50.728;4.160;2023-03-05T02:49:13;7.10;99.90
57636;DHT22;43465;50.728;4.160;2023-03-05T02:51:39;7.10;99.90
57636;DHT22;43465;50.728;4.160;2023-03-05T02:54:04;7.10;99.90
57636;DHT22;43465;50.728;4.160;2023-03-05T02:56:30;7.10;99.90
57636;DHT22;43465;50.728;4.160;2023-03-05T02:58:56;7.20;99.90
57636;DHT22;43465;50.728;4.160;2023-03-05T03:01:21;7.10;99.90
57636;DHT22;43465;50.728;4.160;2023-03-05T03:03:47;7.00;99.90
57636;DHT22;43465;50.728;4.160;2023-03-05T03:06:12;7.00;99.90
57636;DHT22;43465;50.728;4.160;2023-03-05T03:08:38;7.10;99.90
57636;DHT22;43465;50.728;4.160;2023-03-05T03:11:09;7.10;99.90
57636;DHT22;43465;50.728;4.160;2023-03-05T03:13:37;7.00;99.90
57636;DHT22;43465;50.728;4.160;2023-03-05T03:16:09;7.10;99.90
57636;DHT22;43465;50.728;4.160;2023-03-05T03:18:35;7.10;99.90
57636;DHT22;43465;50.728;4.160;2023-03-05T03:21:01;7.20;99.90
57636;DHT22;43465;50.728;4.160;2023-03-05T03:23:27;7.10;99.90
57636;DHT22;43465;50.728;4.160;2023-03-05T03:25:52;7.10;99.90
57636;DHT22;43465;50.728;4.160;2023-03-05T03:28:18;7.10;99.90
57636;DHT22;43465;50.728;4.160;2023-03-05T03:30:44;6.90;99.90
57636;DHT22;43465;50.728;4.160;2023-03-05T03:33:09;6.90;99.90
57636;DHT22;43465;50.728;4.160;2023-03-05T03:35:35;6.80;99.90
57636;DHT22;43465;50.728;4.160;2023-03-05T03:38:01;6.80;99.90
57636;DHT22;43465;50.728;4.160;2023-03-05T03:40:26;6.80;99.90
57636;DHT22;43465;50.728;4.160;2023-03-05T03:42:53;6.70;99.90
57636;DHT22;43465;50.728;4.160;2023-03-05T03:45:19;6.70;99.90
57636;DHT22;43465;50.728;4.160;2023-03-05T03:47:48;6.50;99.90
57636;DHT22;43465;50.728;4.160;2023-03-05T03:50:13;6.60;99.90
57636;DHT22;43465;50.728;4.160;2023-03-05T03:52:39;6.40;99.90
57636;DHT22;43465;50.728;4.160;2023-03-05T03:55:05;6.50;99.90
57636;DHT22;43465;50.728;4.160;2023-03-05T03:57:31;6.50;99.90
57636;DHT22;43465;50.728;4.160;2023-03-05T03:59:58;6.60;99.90
57636;DHT22;43465;50.728;4.160;2023-03-05T04:02:24;6.60;99.90
57636;DHT22;43465;50.728;4.160;2023-03-05T04:04:51;6.70;99.90
57636;DHT22;43465;50.728;4.160;2023-03-05T04:07:17;6.70;99.90
57636;DHT22;43465;50.728;4.160;2023-03-05T04:09:43;6.80;99.90
57636;DHT22;43465;50.728;4.160;2023-03-05T04:12:08;6.80;99.90
57636;DHT22;43465;50.728;4.160;2023-03-05T04:14:34;6.80;99.90
57636;DHT22;43465;50.728;4.160;2023-03-05T04:17:00;6.80;99.90
57636;DHT22;43465;50.728;4.160;2023-03-05T04:19:26;6.70;99.90
57636;DHT22;43465;50.728;4.160;2023-03-05T04:21:52;6.80;99.90
57636;DHT22;43465;50.728;4.160;2023-03-05T04:24:18;6.90;99.90
57636;DHT22;43465;50.728;4.160;2023-03-05T04:26:44;7.00;99.90
57636;DHT22;43465;50.728;4.160;2023-03-05T04:29:09;7.00;99.90
57636;DHT22;43465;50.728;4.160;2023-03-05T04:31:35;7.10;99.90
57636;DHT22;43465;50.728;4.160;2023-03-05T04:34:01;7.00;99.90
57636;DHT22;43465;50.728;4.160;2023-03-05T04:36:26;7.10;99.90
57636;DHT22;43465;50.728;4.160;2023-03-05T04:38:52;7.10;99.90
57636;DHT22;43465;50.728;4.160;2023-03-05T04:41:18;7.10;99.90
57636;DHT22;43465;50.728;4.160;2023-03-05T04:43:43;7.10;99.90
57636;DHT22;43465;50.728;4.160;2023-03-05T04:46:09;7.10;99.90
57636;DHT22;43465;50.728;4.160;2023-03-05T04:48:34;7.10;99.90
57636;DHT22;43465;50.728;4.160;2023-03-05T04:51:00;7.10;99.90
57636;DHT22;43465;50.728;4.160;2023-03-05T04:53:26;7.10;99.90
57636;DHT22;43465;50.728;4.160;2023-03-05T04:55:55;7.10;99.90
57636;DHT22;43465;50.728;4.160;2023-03-05T04:58:22;7.10;99.90
57636;DHT22;43465;50.728;4.160;2023-03-05T05:00:48;7.00;99.90
57636;DHT22;43465;50.728;4.160;2023-03-05T05:03:14;7.00;99.90
57636;DHT22;43465;50.728;4.160;2023-03-05T05:05:39;6.90;99.90
57636;DHT22;43465;50.728;4.160;2023-03-05T05:08:05;6.90;99.90
57636;DHT22;43465;50.728;4.160;2023-03-05T05:10:31;6.80;99.90
57636;DHT22;43465;50.728;4.160;2023-03-05T05:12:56;6.70;99.90
57636;DHT22;43465;50.728;4.160;2023-03-05T05:15:22;6.70;99.90
57636;DHT22;43465;50.728;4.160;2023-03-05T05:17:48;6.70;99.90
57636;DHT22;43465;50.728;4.160;2023-03-05T05:20:15;6.60;99.90
57636;DHT22;43465;50.728;4.160;2023-03-05T05:22:41;6.60;99.90
57636;DHT22;43465;50.728;4.160;2023-03-05T05:25:07;6.60;99.90
57636;DHT22;43465;50.728;4.160;2023-03-05T05:27:33;6.60;99.90
57636;DHT22;43465;50.728;4.160;2023-03-05T05:29:59;6.50;99.90
57636;DHT22;43465;50.728;4.160;2023-03-05T05:32:25;6.50;99.90
57636;DHT22;43465;50.728;4.160;2023-03-05T05:34:55;6.40;99.90
57636;DHT22;43465;50.728;4.160;2023-03-05T05:37:21;6.40;99.90
57636;DHT22;43465;50.728;4.160;2023-03-05T05:39:47;6.50;99.90
57636;DHT22;43465;50.728;4.160;2023-03-05T05:42:18;6.50;99.90
57636;DHT22;43465;50.728;4.160;2023-03-05T05:44:45;6.60;99.90
57636;DHT22;43465;50.728;4.160;2023-03-05T05:47:15;6.50;99.90
57636;DHT22;43465;50.728;4.160;2023-03-05T05:49:41;6.50;99.90
57636;DHT22;43465;50.728;4.160;2023-03-05T05:52:07;6.50;99.90
57636;DHT22;43465;50.728;4.160;2023-03-05T05:54:33;6.50;99.90
57636;DHT22;43465;50.728;4.160;2023-03-05T05:56:58;6.50;99.90
57636;DHT22;43465;50.728;4.160;2023-03-05T05:59:24;6.50;99.90
57636;DHT22;43465;50.728;4.160;2023-03-05T06:01:50;6.40;99.90
57636;DHT22;43465;50.728;4.160;2023-03-05T06:04:15;6.40;99.90
57636;DHT22;43465;50.728;4.160;2023-03-05T06:06:41;6.20;99.90
57636;DHT22;43465;50.728;4.160;2023-03-05T06:09:07;6.20;99.90
57636;DHT22;43465;50.728;4.160;2023-03-05T06:11:32;6.20;99.90
57636;DHT22;43465;50.728;4.160;2023-03-05T06:13:58;6.10;99.90
57636;DHT22;43465;50.728;4.160;2023-03-05T06:16:26;6.10;99.90
57636;DHT22;43465;50.728;4.160;2023-03-05T06:18:52;6.20;99.90
57636;DHT22;43465;50.728;4.160;2023-03-05T06:21:19;6.30;99.90
57636;DHT22;43465;50.728;4.160;2023-03-05T06:23:46;6.30;99.90
57636;DHT22;43465;50.728;4.160;2023-03-05T06:26:15;6.20;99.90
57636;DHT22;43465;50.728;4.160;2023-03-05T06:28:41;6.20;99.90
57636;DHT22;43465;50.728;4.160;2023-03-05T06:31:12;6.20;99.90
57636;DHT22;43465;50.728;4.160;2023-03-05T06:33:40;6.30;99.90
57636;DHT22;43465;50.728;4.160;2023-03-05T06:36:08;6.30;99.90
57636;DHT22;43465;50.728;4.160;2023-03-05T06:38:35;6.30;99.90
57636;DHT22;43465;50.728;4.160;2023-03-05T06:41:09;6.30;99.90
57636;DHT22;43465;50.728;4.160;2023-03-05T06:43:37;6.40;99.90
57636;DHT22;43465;50.728;4.160;2023-03-05T06:46:09;6.50;99.90
57636;DHT22;43465;50.728;4.160;2023-03-05T06:48:36;6.50;99.90
57636;DHT22;43465;50.728;4.160;2023-03-05T06:51:02;6.50;99.90
57636;DHT22;43465;50.728;4.160;2023-03-05T06:53:28;6.50;99.90
57636;DHT22;43465;50.728;4.160;2023-03-05T06:55:54;6.50;99.90
57636;DHT22;43465;50.728;4.160;2023-03-05T06:58:20;6.40;99.90
57636;DHT22;43465;50.728;4.160;2023-03-05T07:00:46;6.50;99.90
57636;DHT22;43465;50.728;4.160;2023-03-05T07:03:12;6.40;99.90
57636;DHT22;43465;50.728;4.160;2023-03-05T07:05:39;6.50;99.90
57636;DHT22;43465;50.728;4.160;2023-03-05T07:08:05;6.50;99.90
57636;DHT22;43465;50.728;4.160;2023-03-05T07:10:30;6.50;99.90
57636;DHT22;43465;50.728;4.160;2023-03-05T07:12:56;6.50;99.90
57636;DHT22;43465;50.728;4.160;2023-03-05T07:15:23;6.40;99.90
57636;DHT22;43465;50.728;4.160;2023-03-05T07:17:49;6.40;99.90
57636;DHT22;43465;50.728;4.160;2023-03-05T07:20:14;6.30;99.90
57636;DHT22;43465;50.728;4.160;2023-03-05T07:22:40;6.30;99.90
57636;DHT22;43465;50.728;4.160;2023-03-05T07:25:06;6.20;99.90
57636;DHT22;43465;50.728;4.160;2023-03-05T07:27:36;6.20;99.90
57636;DHT22;43465;50.728;4.160;2023-03-05T07:30:02;6.00;99.90
57636;DHT22;43465;50.728;4.160;2023-03-05T07:32:28;5.90;99.90
57636;DHT22;43465;50.728;4.160;2023-03-05T07:34:54;6.00;99.90
57636;DHT22;43465;50.728;4.160;2023-03-05T07:37:20;6.10;99.90
57636;DHT22;43465;50.728;4.160;2023-03-05T07:39:45;6.10;99.90
57636;DHT22;43465;50.728;4.160;2023-03-05T07:42:11;6.10;99.90
57636;DHT22;43465;50.728;4.160;2023-03-05T07:44:36;6.00;99.90
57636;DHT22;43465;50.728;4.160;2023-03-05T07:47:04;6.10;99.90
57636;DHT22;43465;50.728;4.160;2023-03-05T07:49:30;6.00;99.90
57636;DHT22;43465;50.728;4.160;2023-03-05T07:51:55;6.10;99.90
57636;DHT22;43465;50.728;4.160;2023-03-05T07:54:21;6.10;99.90
57636;DHT22;43465;50.728;4.160;2023-03-05T07:56:46;6.10;99.90
57636;DHT22;43465;50.728;4.160;2023-03-05T07:59:13;6.10;99.90
57636;DHT22;43465;50.728;4.160;2023-03-05T08:01:39;6.20;99.90
57636;DHT22;43465;50.728;4.160;2023-03-05T08:04:06;6.20;99.90
57636;DHT22;43465;50.728;4.160;2023-03-05T08:06:32;6.20;99.90
57636;DHT22;43465;50.728;4.160;2023-03-05T08:08:58;6.30;99.90
57636;DHT22;43465;50.728;4.160;2023-03-05T08:11:25;6.30;99.90
57636;DHT22;43465;50.728;4.160;2023-03-05T08:13:52;6.50;99.90
57636;DHT22;43465;50.728;4.160;2023-03-05T08:16:20;6.50;99.90
57636;DHT22;43465;50.728;4.160;2023-03-05T08:18:46;6.40;99.90
57636;DHT22;43465;50.728;4.160;2023-03-05T08:21:20;6.20;99.90
57636;DHT22;43465;50.728;4.160;2023-03-05T08:23:45;6.10;99.90
57636;DHT22;43465;50.728;4.160;2023-03-05T08:26:17;6.10;99.90
57636;DHT22;43465;50.728;4.160;2023-03-05T08:28:43;6.30;99.90
57636;DHT22;43465;50.728;4.160;2023-03-05T08:31:10;6.40;99.90
57636;DHT22;43465;50.728;4.160;2023-03-05T08:33:36;6.50;99.90
57636;DHT22;43465;50.728;4.160;2023-03-05T08:36:02;6.60;99.90
57636;DHT22;43465;50.728;4.160;2023-03-05T08:38:28;6.60;99.90
57636;DHT22;43465;50.728;4.160;2023-03-05T08:40:53;6.60;99.90
57636;DHT22;43465;50.728;4.160;2023-03-05T08:43:19;6.70;99.90
57636;DHT22;43465;50.728;4.160;2023-03-05T08:45:45;6.70;99.90
57636;DHT22;43465;50.728;4.160;2023-03-05T08:48:12;6.70;99.90
57636;DHT22;43465;50.728;4.160;2023-03-05T08:50:38;6.70;99.90
57636;DHT22;43465;50.728;4.160;2023-03-05T08:53:03;6.70;99.90
57636;DHT22;43465;50.728;4.160;2023-03-05T08:55:29;6.70;99.90
57636;DHT22;43465;50.728;4.160;2023-03-05T08:57:55;6.70;99.90
57636;DHT22;43465;50.728;4.160;2023-03-05T09:00:21;6.80;99.90
57636;DHT22;43465;50.728;4.160;2023-03-05T09:02:46;6.80;99.90
57636;DHT22;43465;50.728;4.160;2023-03-05T09:05:12;6.90;99.90
57636;DHT22;43465;50.728;4.160;2023-03-05T09:07:38;7.00;99.90
57636;DHT22;43465;50.728;4.160;2023-03-05T09:10:04;7.10;99.90
57636;DHT22;43465;50.728;4.160;2023-03-05T09:12:30;7.20;99.90
57636;DHT22;43465;50.728;4.160;2023-03-05T09:14:56;7.30;99.90
57636;DHT22;43465;50.728;4.160;2023-03-05T09:17:22;7.30;99.90
57636;DHT22;43465;50.728;4.160;2023-03-05T09:19:48;7.20;99.90
57636;DHT22;43465;50.728;4.160;2023-03-05T09:22:14;7.20;99.90
57636;DHT22;43465;50.728;4.160;2023-03-05T09:24:40;7.20;99.90
57636;DHT22;43465;50.728;4.160;2023-03-05T09:27:05;7.20;99.90
57636;DHT22;43465;50.728;4.160;2023-03-05T09:29:31;7.30;99.90
57636;DHT22;43465;50.728;4.160;2023-03-05T09:31:57;7.30;99.90
57636;DHT22;43465;50.728;4.160;2023-03-05T09:34:23;7.40;99.90
57636;DHT22;43465;50.728;4.160;2023-03-05T09:36:49;7.50;99.90
57636;DHT22;43465;50.728;4.160;2023-03-05T09:39:15;7.60;99.90
57636;DHT22;43465;50.728;4.160;2023-03-05T09:44:28;7.60;99.90
57636;DHT22;43465;50.728;4.160;2023-03-05T09:50:10;7.70;99.90
57636;DHT22;43465;50.728;4.160;2023-03-05T09:52:50;7.70;99.90
57636;DHT22;43465;50.728;4.160;2023-03-05T09:55:29;7.70;99.90
57636;DHT22;43465;50.728;4.160;2023-03-05T09:58:01;7.70;99.90
57636;DHT22;43465;50.728;4.160;2023-03-05T10:02:58;7.80;99.90
57636;DHT22;43465;50.728;4.160;2023-03-05T10:08:00;7.80;99.90
57636;DHT22;43465;50.728;4.160;2023-03-05T10:10:48;7.80;99.90
57636;DHT22;43465;50.728;4.160;2023-03-05T10:13:29;7.90;99.90
57636;DHT22;43465;50.728;4.160;2023-03-05T10:18:40;8.00;99.90
57636;DHT22;43465;50.728;4.160;2023-03-05T10:25:13;7.80;99.90
57636;DHT22;43465;50.728;4.160;2023-03-05T10:27:49;7.80;99.90
57636;DHT22;43465;50.728;4.160;2023-03-05T10:35:52;7.90;99.90
57636;DHT22;43465;50.728;4.160;2023-03-05T10:40:52;7.20;99.90
57636;DHT22;43465;50.728;4.160;2023-03-05T10:43:46;6.80;99.90
57636;DHT22;43465;50.728;4.160;2023-03-05T10:46:16;6.60;99.90
57636;DHT22;43465;50.728;4.160;2023-03-05T10:49:00;6.60;99.90
57636;DHT22;43465;50.728;4.160;2023-03-05T10:51:37;6.50;99.90
57636;DHT22;43465;50.728;4.160;2023-03-05T10:54:27;6.50;99.90
57636;DHT22;43465;50.728;4.160;2023-03-05T10:57:26;6.60;99.90
57636;DHT22;43465;50.728;4.160;2023-03-05T11:02:31;6.80;99.90
57636;DHT22;43465;50.728;4.160;2023-03-05T11:04:57;6.80;99.90
57636;DHT22;43465;50.728;4.160;2023-03-05T11:10:16;7.00;99.90
57636;DHT22;43465;50.728;4.160;2023-03-05T11:12:43;7.00;99.90
57636;DHT22;43465;50.728;4.160;2023-03-05T11:17:41;7.20;99.90
57636;DHT22;43465;50.728;4.160;2023-03-05T11:28:22;7.30;99.90
57636;DHT22;43465;50.728;4.160;2023-03-05T11:31:09;7.40;99.90
57636;DHT22;43465;50.728;4.160;2023-03-05T11:34:20;7.40;99.90
57636;DHT22;43465;50.728;4.160;2023-03-05T11:39:24;7.60;99.90
57636;DHT22;43465;50.728;4.160;2023-03-05T11:42:00;7.70;99.90
57636;DHT22;43465;50.728;4.160;2023-03-05T11:44:46;7.60;99.90
57636;DHT22;43465;50.728;4.160;2023-03-05T11:49:44;7.70;99.90
57636;DHT22;43465;50.728;4.160;2023-03-05T11:52:14;7.80;99.90
57636;DHT22;43465;50.728;4.160;2023-03-05T11:55:06;7.90;99.90
57636;DHT22;43465;50.728;4.160;2023-03-05T12:00:43;8.20;99.90
57636;DHT22;43465;50.728;4.160;2023-03-05T12:03:15;8.30;99.90
57636;DHT22;43465;50.728;4.160;2023-03-05T12:05:46;8.30;99.90
57636;DHT22;43465;50.728;4.160;2023-03-05T12:08:16;8.20;99.90
57636;DHT22;43465;50.728;4.160;2023-03-05T12:10:44;8.30;99.90
57636;DHT22;43465;50.728;4.160;2023-03-05T12:13:14;8.40;99.90
57636;DHT22;43465;50.728;4.160;2023-03-05T12:15:49;8.50;99.90
57636;DHT22;43465;50.728;4.160;2023-03-05T12:21:24;8.50;99.90
57636;DHT22;43465;50.728;4.160;2023-03-05T12:23:57;8.40;99.90
57636;DHT22;43465;50.728;4.160;2023-03-05T12:26:55;8.40;99.90
57636;DHT22;43465;50.728;4.160;2023-03-05T12:29:41;8.40;99.90
57636;DHT22;43465;50.728;4.160;2023-03-05T12:32:50;8.50;99.90
57636;DHT22;43465;50.728;4.160;2023-03-05T12:35:21;8.50;99.90
57636;DHT22;43465;50.728;4.160;2023-03-05T12:42:54;8.50;99.90
57636;DHT22;43465;50.728;4.160;2023-03-05T12:55:35;8.70;99.90
57636;DHT22;43465;50.728;4.160;2023-03-05T12:58:07;8.60;99.90
57636;DHT22;43465;50.728;4.160;2023-03-05T13:03:42;8.60;99.90
57636;DHT22;43465;50.728;4.160;2023-03-05T13:06:27;8.70;99.90
57636;DHT22;43465;50.728;4.160;2023-03-05T13:09:26;8.70;99.90
57636;DHT22;43465;50.728;4.160;2023-03-05T13:11:54;8.80;99.90
57636;DHT22;43465;50.728;4.160;2023-03-05T13:16:58;9.00;99.90
57636;DHT22;43465;50.728;4.160;2023-03-05T13:19:25;9.10;99.90
57636;DHT22;43465;50.728;4.160;2023-03-05T13:22:03;9.20;99.90
57636;DHT22;43465;50.728;4.160;2023-03-05T13:24:29;9.20;99.90
57636;DHT22;43465;50.728;4.160;2023-03-05T13:26:55;9.30;99.90
57636;DHT22;43465;50.728;4.160;2023-03-05T13:29:23;9.40;99.90
57636;DHT22;43465;50.728;4.160;2023-03-05T13:32:01;9.40;99.90
57636;DHT22;43465;50.728;4.160;2023-03-05T13:34:36;9.40;99.90
57636;DHT22;43465;50.728;4.160;2023-03-05T13:37:16;9.40;99.90
57636;DHT22;43465;50.728;4.160;2023-03-05T13:39:51;9.40;99.90
57636;DHT22;43465;50.728;4.160;2023-03-05T13:42:31;9.40;99.90
57636;DHT22;43465;50.728;4.160;2023-03-05T13:45:17;9.40;99.90
57636;DHT22;43465;50.728;4.160;2023-03-05T13:47:51;9.40;99.90
57636;DHT22;43465;50.728;4.160;2023-03-05T13:50:24;9.20;99.90
57636;DHT22;43465;50.728;4.160;2023-03-05T13:52:50;8.90;99.90
57636;DHT22;43465;50.728;4.160;2023-03-05T13:55:16;8.70;99.90
57636;DHT22;43465;50.728;4.160;2023-03-05T13:57:45;8.50;99.90
57636;DHT22;43465;50.728;4.160;2023-03-05T14:00:25;8.30;99.90
57636;DHT22;43465;50.728;4.160;2023-03-05T14:02:53;8.20;99.90
57636;DHT22;43465;50.728;4.160;2023-03-05T14:05:19;8.20;99.90
57636;DHT22;43465;50.728;4.160;2023-03-05T14:07:48;8.30;99.90
57636;DHT22;43465;50.728;4.160;2023-03-05T14:12:56;8.30;99.90
57636;DHT22;43465;50.728;4.160;2023-03-05T14:15:31;8.30;99.90
57636;DHT22;43465;50.728;4.160;2023-03-05T14:20:38;8.20;99.90
57636;DHT22;43465;50.728;4.160;2023-03-05T14:23:24;8.20;99.90
57636;DHT22;43465;50.728;4.160;2023-03-05T14:25:50;8.10;99.90
57636;DHT22;43465;50.728;4.160;2023-03-05T14:30:51;8.00;99.90
57636;DHT22;43465;50.728;4.160;2023-03-05T14:33:35;8.00;99.90
57636;DHT22;43465;50.728;4.160;2023-03-05T14:36:02;8.00;99.90
57636;DHT22;43465;50.728;4.160;2023-03-05T14:38:30;8.00;99.90
57636;DHT22;43465;50.728;4.160;2023-03-05T14:40:58;8.00;99.90
57636;DHT22;43465;50.728;4.160;2023-03-05T14:43:42;7.90;99.90
57636;DHT22;43465;50.728;4.160;2023-03-05T14:46:08;7.90;99.90
57636;DHT22;43465;50.728;4.160;2023-03-05T14:48:34;7.80;99.90
57636;DHT22;43465;50.728;4.160;2023-03-05T14:51:00;7.90;99.90
57636;DHT22;43465;50.728;4.160;2023-03-05T14:53:29;7.80;99.90
57636;DHT22;43465;50.728;4.160;2023-03-05T14:55:57;7.80;99.90
57636;DHT22;43465;50.728;4.160;2023-03-05T14:58:25;7.80;99.90
57636;DHT22;43465;50.728;4.160;2023-03-05T15:00:53;7.80;99.90
57636;DHT22;43465;50.728;4.160;2023-03-05T15:03:20;7.80;99.90
57636;DHT22;43465;50.728;4.160;2023-03-05T15:05:49;7.80;99.90
57636;DHT22;43465;50.728;4.160;2023-03-05T15:08:19;7.80;99.90
57636;DHT22;43465;50.728;4.160;2023-03-05T15:10:45;7.90;99.90
57636;DHT22;43465;50.728;4.160;2023-03-05T15:13:12;7.90;99.90
57636;DHT22;43465;50.728;4.160;2023-03-05T15:15:39;7.90;99.90
57636;DHT22;43465;50.728;4.160;2023-03-05T15:18:05;7.90;99.90
57636;DHT22;43465;50.728;4.160;2023-03-05T15:20:31;7.90;99.90
57636;DHT22;43465;50.728;4.160;2023-03-05T15:22:57;7.90;99.90
57636;DHT22;43465;50.728;4.160;2023-03-05T15:25:24;7.90;99.90
57636;DHT22;43465;50.728;4.160;2023-03-05T15:27:51;7.80;99.90
57636;DHT22;43465;50.728;4.160;2023-03-05T15:30:24;7.90;99.90
57636;DHT22;43465;50.728;4.160;2023-03-05T15:32:52;8.00;99.90
57636;DHT22;43465;50.728;4.160;2023-03-05T15:35:19;7.90;99.90
57636;DHT22;43465;50.728;4.160;2023-03-05T15:37:44;8.00;99.90
57636;DHT22;43465;50.728;4.160;2023-03-05T15:40:11;8.10;99.90
57636;DHT22;43465;50.728;4.160;2023-03-05T15:42:37;8.10;99.90
57636;DHT22;43465;50.728;4.160;2023-03-05T15:45:03;8.00;99.90
57636;DHT22;43465;50.728;4.160;2023-03-05T15:47:29;7.80;99.90
57636;DHT22;43465;50.728;4.160;2023-03-05T15:49:55;7.80;99.90
57636;DHT22;43465;50.728;4.160;2023-03-05T15:52:20;7.90;99.90
57636;DHT22;43465;50.728;4.160;2023-03-05T15:54:46;7.80;99.90
57636;DHT22;43465;50.728;4.160;2023-03-05T15:57:12;7.70;99.90
57636;DHT22;43465;50.728;4.160;2023-03-05T15:59:38;7.70;99.90
57636;DHT22;43465;50.728;4.160;2023-03-05T16:02:04;7.60;99.90
57636;DHT22;43465;50.728;4.160;2023-03-05T16:04:30;7.50;99.90
57636;DHT22;43465;50.728;4.160;2023-03-05T16:06:57;7.40;99.90
57636;DHT22;43465;50.728;4.160;2023-03-05T16:09:25;7.40;99.90
57636;DHT22;43465;50.728;4.160;2023-03-05T16:11:53;7.40;99.90
57636;DHT22;43465;50.728;4.160;2023-03-05T16:14:22;7.40;99.90
57636;DHT22;43465;50.728;4.160;2023-03-05T16:16:53;7.40;99.90
57636;DHT22;43465;50.728;4.160;2023-03-05T16:19:20;7.50;99.90
57636;DHT22;43465;50.728;4.160;2023-03-05T16:21:46;7.50;99.90
57636;DHT22;43465;50.728;4.160;2023-03-05T16:24:12;7.50;99.90
57636;DHT22;43465;50.728;4.160;2023-03-05T16:26:39;7.40;99.90
57636;DHT22;43465;50.728;4.160;2023-03-05T16:29:05;7.50;99.90
57636;DHT22;43465;50.728;4.160;2023-03-05T16:31:31;7.40;99.90
57636;DHT22;43465;50.728;4.160;2023-03-05T16:33:59;7.40;99.90
57636;DHT22;43465;50.728;4.160;2023-03-05T16:36:27;7.40;99.90
57636;DHT22;43465;50.728;4.160;2023-03-05T16:38:56;7.50;99.90
57636;DHT22;43465;50.728;4.160;2023-03-05T16:41:22;7.40;99.90
57636;DHT22;43465;50.728;4.160;2023-03-05T16:43:49;7.50;99.90
57636;DHT22;43465;50.728;4.160;2023-03-05T16:46:15;7.50;99.90
57636;DHT22;43465;50.728;4.160;2023-03-05T16:48:42;7.40;99.90
57636;DHT22;43465;50.728;4.160;2023-03-05T16:51:08;7.40;99.90
57636;DHT22;43465;50.728;4.160;2023-03-05T16:53:34;7.20;99.90
57636;DHT22;43465;50.728;4.160;2023-03-05T16:56:02;7.20;99.90
57636;DHT22;43465;50.728;4.160;2023-03-05T16:58:29;7.10;99.90
57636;DHT22;43465;50.728;4.160;2023-03-05T17:00:54;7.00;99.90
57636;DHT22;43465;50.728;4.160;2023-03-05T17:03:20;7.10;99.90
57636;DHT22;43465;50.728;4.160;2023-03-05T17:05:47;7.10;99.90
57636;DHT22;43465;50.728;4.160;2023-03-05T17:08:13;7.10;99.90
57636;DHT22;43465;50.728;4.160;2023-03-05T17:10:38;7.20;99.90
57636;DHT22;43465;50.728;4.160;2023-03-05T17:13:06;7.10;99.90
57636;DHT22;43465;50.728;4.160;2023-03-05T17:15:32;7.10;99.90